sensor_id;sensor_type;location;lat;lon;timestamp;temperature;humidity
32522;DHT22;18963;51.504;5.316;2023-12-20T00:02:08;5.70;99.90
32522;DHT22;18963;51.504;5.316;2023-12-20T00:04:34;5.70;99.90
32522;DHT22;18963;51.504;5.316;2023-12-20T00:06:59;5.60;99.90
32522;DHT22;18963;51.504;5.316;2023-12-20T00:09:25;5.60;99.90
32522;DHT22;18963;51.504;5.316;2023-12-20T00:11:50;5.60;99.90
32522;DHT22;18963;51.504;5.316;2023-12-20T00:14:16;5.50;99.90
32522;DHT22;18963;51.504;5.316;2023-12-20T00:16:41;5.50;99.90
32522;DHT22;18963;51.504;5.316;2023-12-20T00:19:07;5.50;99.90
32522;DHT22;18963;51.504;5.316;2023-12-20T00:21:33;5.40;99.90
32522;DHT22;18963;51.504;5.316;2023-12-20T00:23:58;5.40;99.90
32522;DHT22;18963;51.504;5.316;2023-12-20T00:26:23;5.40;99.90
32522;DHT22;18963;51.504;5.316;2023-12-20T00:28:49;5.40;99.90
32522;DHT22;18963;51.504;5.316;2023-12-20T00:31:14;5.40;99.90
32522;DHT22;18963;51.504;5.316;2023-12-20T00:33:40;5.30;99.90
32522;DHT22;18963;51.504;5.316;2023-12-20T00:36:08;5.30;99.90
32522;DHT22;18963;51.504;5.316;2023-12-20T00:38:35;5.20;99.90
32522;DHT22;18963;51.504;5.316;2023-12-20T00:41:00;5.20;99.90
32522;DHT22;18963;51.504;5.316;2023-12-20T00:43:26;5.20;99.90
32522;DHT22;18963;51.504;5.316;2023-12-20T00:45:52;5.20;99.90
32522;DHT22;18963;51.504;5.316;2023-12-20T00:48:17;5.20;99.90
32522;DHT22;18963;51.504;5.316;2023-12-20T00:50:43;5.20;99.90
32522;DHT22;18963;51.504;5.316;2023-12-20T00:53:08;5.20;99.90
32522;DHT22;18963;51.504;5.316;2023-12-20T00:55:33;5.20;99.90
32522;DHT22;18963;51.504;5.316;2023-12-20T00:57:59;5.20;99.90
32522;DHT22;18963;51.504;5.316;2023-12-20T01:00:25;5.20;99.90
32522;DHT22;18963;51.504;5.316;2023-12-20T01:02:51;5.20;99.90
32522;DHT22;18963;51.504;5.316;2023-12-20T01:05:17;5.20;99.90
32522;DHT22;18963;51.504;5.316;2023-12-20T01:07:43;5.20;99.90
32522;DHT22;18963;51.504;5.316;2023-12-20T01:10:08;5.20;99.90
32522;DHT22;18963;51.504;5.316;2023-12-20T01:12:35;5.20;99.90
32522;DHT22;18963;51.504;5.316;2023-12-20T01:15:00;5.20;99.90
32522;DHT22;18963;51.504;5.316;2023-12-20T01:17:26;5.20;99.90
32522;DHT22;18963;51.504;5.316;2023-12-20T01:19:51;5.20;99.90
32522;DHT22;18963;51.504;5.316;2023-12-20T01:22:17;5.20;99.90
32522;DHT22;18963;51.504;5.316;2023-12-20T01:24:42;5.20;99.90
32522;DHT22;18963;51.504;5.316;2023-12-20T01:27:08;5.20;99.90
32522;DHT22;18963;51.504;5.316;2023-12-20T01:29:33;5.20;99.90
32522;DHT22;18963;51.504;5.316;2023-12-20T01:31:59;5.10;99.90
32522;DHT22;18963;51.504;5.316;2023-12-20T01:34:24;5.10;99.90
32522;DHT22;18963;51.504;5.316;2023-12-20T01:36:50;5.00;99.90
32522;DHT22;18963;51.504;5.316;2023-12-20T01:39:15;5.00;99.90
32522;DHT22;18963;51.504;5.316;2023-12-20T01:41:41;5.00;99.90
32522;DHT22;18963;51.504;5.316;2023-12-20T01:44:06;4.90;99.90
32522;DHT22;18963;51.504;5.316;2023-12-20T01:46:32;4.90;99.90
32522;DHT22;18963;51.504;5.316;2023-12-20T01:48:57;4.90;99.90
32522;DHT22;18963;51.504;5.316;2023-12-20T01:51:23;4.90;99.90
32522;DHT22;18963;51.504;5.316;2023-12-20T01:53:49;4.90;99.90
32522;DHT22;18963;51.504;5.316;2023-12-20T01:56:15;4.90;99.90
32522;DHT22;18963;51.504;5.316;2023-12-20T01:58:43;4.90;99.90
32522;DHT22;18963;51.504;5.316;2023-12-20T02:01:09;4.80;99.90
32522;DHT22;18963;51.504;5.316;2023-12-20T02:03:35;4.80;99.90
32522;DHT22;18963;51.504;5.316;2023-12-20T02:06:02;4.80;99.90
32522;DHT22;18963;51.504;5.316;2023-12-20T02:08:28;4.80;99.90
32522;DHT22;18963;51.504;5.316;2023-12-20T02:10:53;4.80;99.90
32522;DHT22;18963;51.504;5.316;2023-12-20T02:13:19;4.70;99.90
32522;DHT22;18963;51.504;5.316;2023-12-20T02:15:44;4.80;99.90
32522;DHT22;18963;51.504;5.316;2023-12-20T02:18:10;4.80;99.90
32522;DHT22;18963;51.504;5.316;2023-12-20T02:20:35;4.80;99.90
32522;DHT22;18963;51.504;5.316;2023-12-20T02:23:01;4.80;99.90
32522;DHT22;18963;51.504;5.316;2023-12-20T02:25:26;4.80;99.90
32522;DHT22;18963;51.504;5.316;2023-12-20T02:27:52;4.90;99.90
32522;DHT22;18963;51.504;5.316;2023-12-20T02:30:17;4.90;99.90
32522;DHT22;18963;51.504;5.316;2023-12-20T02:32:43;4.80;99.90
32522;DHT22;18963;51.504;5.316;2023-12-20T02:35:08;4.80;99.90
32522;DHT22;18963;51.504;5.316;2023-12-20T02:37:34;4.80;99.90
32522;DHT22;18963;51.504;5.316;2023-12-20T02:39:59;4.80;99.90
32522;DHT22;18963;51.504;5.316;2023-12-20T02:42:25;4.80;99.90
32522;DHT22;18963;51.504;5.316;2023-12-20T02:44:50;4.80;99.90
32522;DHT22;18963;51.504;5.316;2023-12-20T02:47:16;4.90;99.90
32522;DHT22;18963;51.504;5.316;2023-12-20T02:49:41;4.90;99.90
32522;DHT22;18963;51.504;5.316;2023-12-20T02:52:07;5.00;99.90
32522;DHT22;18963;51.504;5.316;2023-12-20T02:54:32;5.00;99.90
32522;DHT22;18963;51.504;5.316;2023-12-20T02:56:58;5.00;99.90
32522;DHT22;18963;51.504;5.316;2023-12-20T02:59:23;5.00;99.90
32522;DHT22;18963;51.504;5.316;2023-12-20T03:01:49;5.10;99.90
32522;DHT22;18963;51.504;5.316;2023-12-20T03:04:14;5.00;99.90
32522;DHT22;18963;51.504;5.316;2023-12-20T03:06:40;5.00;99.90
32522;DHT22;18963;51.504;5.316;2023-12-20T03:09:05;4.90;99.90
32522;DHT22;18963;51.504;5.316;2023-12-20T03:11:31;4.90;99.90
32522;DHT22;18963;51.504;5.316;2023-12-20T03:13:56;4.90;99.90
32522;DHT22;18963;51.504;5.316;2023-12-20T03:16:22;4.90;99.90
32522;DHT22;18963;51.504;5.316;2023-12-20T03:18:48;4.90;99.90
32522;DHT22;18963;51.504;5.316;2023-12-20T03:21:13;4.90;99.90
32522;DHT22;18963;51.504;5.316;2023-12-20T03:23:39;4.90;99.90
32522;DHT22;18963;51.504;5.316;2023-12-20T03:26:08;4.80;99.90
32522;DHT22;18963;51.504;5.316;2023-12-20T03:28:34;4.80;99.90
32522;DHT22;18963;51.504;5.316;2023-12-20T03:30:59;4.90;99.90
32522;DHT22;18963;51.504;5.316;2023-12-20T03:33:25;5.00;99.90
32522;DHT22;18963;51.504;5.316;2023-12-20T03:35:50;5.00;99.90
32522;DHT22;18963;51.504;5.316;2023-12-20T03:38:16;5.00;99.90
32522;DHT22;18963;51.504;5.316;2023-12-20T03:40:41;5.00;99.90
32522;DHT22;18963;51.504;5.316;2023-12-20T03:43:06;5.10;99.90
32522;DHT22;18963;51.504;5.316;2023-12-20T03:45:32;5.10;99.90
32522;DHT22;18963;51.504;5.316;2023-12-20T03:47:57;5.10;99.90
32522;DHT22;18963;51.504;5.316;2023-12-20T03:50:23;5.20;99.90
32522;DHT22;18963;51.504;5.316;2023-12-20T03:52:48;5.20;99.90
32522;DHT22;18963;51.504;5.316;2023-12-20T03:55:14;5.20;99.90
32522;DHT22;18963;51.504;5.316;2023-12-20T03:57:40;5.20;99.90
32522;DHT22;18963;51.504;5.316;2023-12-20T04:00:06;5.30;99.90
32522;DHT22;18963;51.504;5.316;2023-12-20T04:02:36;5.30;99.90
32522;DHT22;18963;51.504;5.316;2023-12-20T04:05:01;5.30;99.90
32522;DHT22;18963;51.504;5.316;2023-12-20T04:07:27;5.40;99.90
32522;DHT22;18963;51.504;5.316;2023-12-20T04:09:52;5.40;99.90
32522;DHT22;18963;51.504;5.316;2023-12-20T04:12:18;5.40;99.90
32522;DHT22;18963;51.504;5.316;2023-12-20T04:14:43;5.50;99.90
32522;DHT22;18963;51.504;5.316;2023-12-20T04:17:09;5.50;99.90
32522;DHT22;18963;51.504;5.316;2023-12-20T04:19:34;5.60;99.90
32522;DHT22;18963;51.504;5.316;2023-12-20T04:22:00;5.60;99.90
32522;DHT22;18963;51.504;5.316;2023-12-20T04:24:25;5.60;99.90
32522;DHT22;18963;51.504;5.316;2023-12-20T04:26:50;5.60;99.90
32522;DHT22;18963;51.504;5.316;2023-12-20T04:29:16;5.70;99.90
32522;DHT22;18963;51.504;5.316;2023-12-20T04:31:42;5.70;99.90
32522;DHT22;18963;51.504;5.316;2023-12-20T04:34:07;5.70;99.90
32522;DHT22;18963;51.504;5.316;2023-12-20T04:36:33;5.70;99.90
32522;DHT22;18963;51.504;5.316;2023-12-20T04:38:59;5.70;99.90
32522;DHT22;18963;51.504;5.316;2023-12-20T04:41:25;5.80;99.90
32522;DHT22;18963;51.504;5.316;2023-12-20T04:43:50;5.80;99.90
32522;DHT22;18963;51.504;5.316;2023-12-20T04:46:16;5.80;99.90
32522;DHT22;18963;51.504;5.316;2023-12-20T04:48:42;5.80;99.90
32522;DHT22;18963;51.504;5.316;2023-12-20T04:51:07;5.90;99.90
32522;DHT22;18963;51.504;5.316;2023-12-20T04:53:32;5.90;99.90
32522;DHT22;18963;51.504;5.316;2023-12-20T04:55:58;5.90;99.90
32522;DHT22;18963;51.504;5.316;2023-12-20T04:58:23;5.90;99.90
32522;DHT22;18963;51.504;5.316;2023-12-20T05:00:49;5.90;99.90
32522;DHT22;18963;51.504;5.316;2023-12-20T05:03:14;5.90;99.90
32522;DHT22;18963;51.504;5.316;2023-12-20T05:05:40;5.90;99.90
32522;DHT22;18963;51.504;5.316;2023-12-20T05:08:05;5.90;99.90
32522;DHT22;18963;51.504;5.316;2023-12-20T05:10:31;5.90;99.90
32522;DHT22;18963;51.504;5.316;2023-12-20T05:12:56;5.90;99.90
32522;DHT22;18963;51.504;5.316;2023-12-20T05:15:22;5.90;99.90
32522;DHT22;18963;51.504;5.316;2023-12-20T05:17:47;5.90;99.90
32522;DHT22;18963;51.504;5.316;2023-12-20T05:20:13;5.90;99.90
32522;DHT22;18963;51.504;5.316;2023-12-20T05:22:38;5.90;99.90
32522;DHT22;18963;51.504;5.316;2023-12-20T05:25:04;5.90;99.90
32522;DHT22;18963;51.504;5.316;2023-12-20T05:27:29;5.90;99.90
32522;DHT22;18963;51.504;5.316;2023-12-20T05:29:55;5.90;99.90
32522;DHT22;18963;51.504;5.316;2023-12-20T05:32:23;5.90;99.90
32522;DHT22;18963;51.504;5.316;2023-12-20T05:34:48;5.90;99.90
32522;DHT22;18963;51.504;5.316;2023-12-20T05:37:14;5.90;99.90
32522;DHT22;18963;51.504;5.316;2023-12-20T05:39:39;5.90;99.90
32522;DHT22;18963;51.504;5.316;2023-12-20T05:42:05;5.90;99.90
32522;DHT22;18963;51.504;5.316;2023-12-20T05:44:30;5.80;99.90
32522;DHT22;18963;51.504;5.316;2023-12-20T05:46:55;5.70;99.90
32522;DHT22;18963;51.504;5.316;2023-12-20T05:49:21;5.70;99.90
32522;DHT22;18963;51.504;5.316;2023-12-20T05:51:47;5.70;99.90
32522;DHT22;18963;51.504;5.316;2023-12-20T05:54:12;5.60;99.90
32522;DHT22;18963;51.504;5.316;2023-12-20T05:56:38;5.50;99.90
32522;DHT22;18963;51.504;5.316;2023-12-20T05:59:04;5.50;99.90
32522;DHT22;18963;51.504;5.316;2023-12-20T06:01:29;5.40;99.90
32522;DHT22;18963;51.504;5.316;2023-12-20T06:03:54;5.40;99.90
32522;DHT22;18963;51.504;5.316;2023-12-20T06:06:20;5.30;99.90
32522;DHT22;18963;51.504;5.316;2023-12-20T06:08:45;5.30;99.90
32522;DHT22;18963;51.504;5.316;2023-12-20T06:11:11;5.30;99.90
32522;DHT22;18963;51.504;5.316;2023-12-20T06:13:36;5.30;99.90
32522;DHT22;18963;51.504;5.316;2023-12-20T06:16:03;5.30;99.90
32522;DHT22;18963;51.504;5.316;2023-12-20T06:18:28;5.20;99.90
32522;DHT22;18963;51.504;5.316;2023-12-20T06:20:54;5.20;99.90
32522;DHT22;18963;51.504;5.316;2023-12-20T06:23:20;5.20;99.90
32522;DHT22;18963;51.504;5.316;2023-12-20T06:25:45;5.10;99.90
32522;DHT22;18963;51.504;5.316;2023-12-20T06:28:10;5.10;99.90
32522;DHT22;18963;51.504;5.316;2023-12-20T06:30:39;5.10;99.90
32522;DHT22;18963;51.504;5.316;2023-12-20T06:33:05;5.00;99.90
32522;DHT22;18963;51.504;5.316;2023-12-20T06:35:32;5.00;99.90
32522;DHT22;18963;51.504;5.316;2023-12-20T06:37:57;4.90;99.90
32522;DHT22;18963;51.504;5.316;2023-12-20T06:40:23;4.90;99.90
32522;DHT22;18963;51.504;5.316;2023-12-20T06:42:48;4.90;99.90
32522;DHT22;18963;51.504;5.316;2023-12-20T06:45:14;4.90;99.90
32522;DHT22;18963;51.504;5.316;2023-12-20T06:47:39;4.90;99.90
32522;DHT22;18963;51.504;5.316;2023-12-20T06:50:05;4.90;99.90
32522;DHT22;18963;51.504;5.316;2023-12-20T06:52:30;4.90;99.90
32522;DHT22;18963;51.504;5.316;2023-12-20T06:54:56;5.00;99.90
32522;DHT22;18963;51.504;5.316;2023-12-20T06:57:21;5.00;99.90
32522;DHT22;18963;51.504;5.316;2023-12-20T06:59:47;5.00;99.90
32522;DHT22;18963;51.504;5.316;2023-12-20T07:02:12;5.10;99.90
32522;DHT22;18963;51.504;5.316;2023-12-20T07:04:39;5.00;99.90
32522;DHT22;18963;51.504;5.316;2023-12-20T07:07:04;5.00;99.90
32522;DHT22;18963;51.504;5.316;2023-12-20T07:09:30;5.00;99.90
32522;DHT22;18963;51.504;5.316;2023-12-20T07:11:55;5.00;99.90
32522;DHT22;18963;51.504;5.316;2023-12-20T07:14:21;5.00;99.90
32522;DHT22;18963;51.504;5.316;2023-12-20T07:16:47;4.90;99.90
32522;DHT22;18963;51.504;5.316;2023-12-20T07:19:12;4.90;99.90
32522;DHT22;18963;51.504;5.316;2023-12-20T07:21:38;4.90;99.90
32522;DHT22;18963;51.504;5.316;2023-12-20T07:24:03;4.90;99.90
32522;DHT22;18963;51.504;5.316;2023-12-20T07:26:28;5.00;99.90
32522;DHT22;18963;51.504;5.316;2023-12-20T07:28:54;5.00;99.90
32522;DHT22;18963;51.504;5.316;2023-12-20T07:31:20;5.00;99.90
32522;DHT22;18963;51.504;5.316;2023-12-20T07:33:45;5.10;99.90
32522;DHT22;18963;51.504;5.316;2023-12-20T07:36:11;5.20;99.90
32522;DHT22;18963;51.504;5.316;2023-12-20T07:38:37;5.20;99.90
32522;DHT22;18963;51.504;5.316;2023-12-20T07:41:02;5.30;99.90
32522;DHT22;18963;51.504;5.316;2023-12-20T07:43:28;5.30;99.90
32522;DHT22;18963;51.504;5.316;2023-12-20T07:45:53;5.30;99.90
32522;DHT22;18963;51.504;5.316;2023-12-20T07:48:19;5.40;99.90
32522;DHT22;18963;51.504;5.316;2023-12-20T07:50:44;5.40;99.90
32522;DHT22;18963;51.504;5.316;2023-12-20T07:53:10;5.40;99.90
32522;DHT22;18963;51.504;5.316;2023-12-20T07:55:35;5.50;99.90
32522;DHT22;18963;51.504;5.316;2023-12-20T07:58:01;5.50;99.90
32522;DHT22;18963;51.504;5.316;2023-12-20T08:00:26;5.50;99.90
32522;DHT22;18963;51.504;5.316;2023-12-20T08:02:52;5.60;99.90
32522;DHT22;18963;51.504;5.316;2023-12-20T08:05:18;5.60;99.90
32522;DHT22;18963;51.504;5.316;2023-12-20T08:07:43;5.60;99.90
32522;DHT22;18963;51.504;5.316;2023-12-20T08:10:09;5.60;99.90
32522;DHT22;18963;51.504;5.316;2023-12-20T08:12:34;5.60;99.90
32522;DHT22;18963;51.504;5.316;2023-12-20T08:15:00;5.70;99.90
32522;DHT22;18963;51.504;5.316;2023-12-20T08:17:26;5.60;99.90
32522;DHT22;18963;51.504;5.316;2023-12-20T08:19:51;5.70;99.90
32522;DHT22;18963;51.504;5.316;2023-12-20T08:22:17;5.70;99.90
32522;DHT22;18963;51.504;5.316;2023-12-20T08:24:42;5.70;99.90
32522;DHT22;18963;51.504;5.316;2023-12-20T08:27:08;5.70;99.90
32522;DHT22;18963;51.504;5.316;2023-12-20T08:29:34;5.80;99.90
32522;DHT22;18963;51.504;5.316;2023-12-20T08:32:00;5.80;99.90
32522;DHT22;18963;51.504;5.316;2023-12-20T08:34:26;5.80;99.90
32522;DHT22;18963;51.504;5.316;2023-12-20T08:36:51;5.90;99.90
32522;DHT22;18963;51.504;5.316;2023-12-20T08:39:17;5.90;99.90
32522;DHT22;18963;51.504;5.316;2023-12-20T08:41:42;6.00;99.90
32522;DHT22;18963;51.504;5.316;2023-12-20T08:44:08;6.00;99.90
32522;DHT22;18963;51.504;5.316;2023-12-20T08:46:34;6.00;99.90
32522;DHT22;18963;51.504;5.316;2023-12-20T08:49:00;6.00;99.90
32522;DHT22;18963;51.504;5.316;2023-12-20T08:51:26;6.10;99.90
32522;DHT22;18963;51.504;5.316;2023-12-20T08:53:51;6.10;99.90
32522;DHT22;18963;51.504;5.316;2023-12-20T08:56:17;6.10;99.90
32522;DHT22;18963;51.504;5.316;2023-12-20T08:58:43;6.10;99.90
32522;DHT22;18963;51.504;5.316;2023-12-20T09:01:09;6.20;99.90
32522;DHT22;18963;51.504;5.316;2023-12-20T09:03:34;6.20;99.90
32522;DHT22;18963;51.504;5.316;2023-12-20T09:06:00;6.20;99.90
32522;DHT22;18963;51.504;5.316;2023-12-20T09:08:25;6.20;99.90
32522;DHT22;18963;51.504;5.316;2023-12-20T09:10:50;6.30;99.90
32522;DHT22;18963;51.504;5.316;2023-12-20T09:13:16;6.30;99.90
32522;DHT22;18963;51.504;5.316;2023-12-20T09:15:41;6.30;99.90
32522;DHT22;18963;51.504;5.316;2023-12-20T09:18:07;6.30;99.90
32522;DHT22;18963;51.504;5.316;2023-12-20T09:20:33;6.40;99.90
32522;DHT22;18963;51.504;5.316;2023-12-20T09:22:59;6.40;99.90
32522;DHT22;18963;51.504;5.316;2023-12-20T09:25:24;6.40;99.90
32522;DHT22;18963;51.504;5.316;2023-12-20T09:27:51;6.40;99.90
32522;DHT22;18963;51.504;5.316;2023-12-20T09:30:18;6.40;99.90
32522;DHT22;18963;51.504;5.316;2023-12-20T09:32:43;6.40;99.90
32522;DHT22;18963;51.504;5.316;2023-12-20T09:35:09;6.40;99.90
32522;DHT22;18963;51.504;5.316;2023-12-20T09:37:34;6.50;99.90
32522;DHT22;18963;51.504;5.316;2023-12-20T09:40:00;6.50;99.90
32522;DHT22;18963;51.504;5.316;2023-12-20T09:42:37;6.50;99.90
32522;DHT22;18963;51.504;5.316;2023-12-20T09:45:03;6.50;99.90
32522;DHT22;18963;51.504;5.316;2023-12-20T09:47:33;6.50;99.90
32522;DHT22;18963;51.504;5.316;2023-12-20T09:49:59;6.60;99.90
32522;DHT22;18963;51.504;5.316;2023-12-20T09:52:24;6.60;99.90
32522;DHT22;18963;51.504;5.316;2023-12-20T09:54:50;6.60;99.90
32522;DHT22;18963;51.504;5.316;2023-12-20T09:57:17;6.70;99.90
32522;DHT22;18963;51.504;5.316;2023-12-20T09:59:43;6.70;99.90
32522;DHT22;18963;51.504;5.316;2023-12-20T10:02:09;6.70;99.90
32522;DHT22;18963;51.504;5.316;2023-12-20T10:04:37;6.80;99.90
32522;DHT22;18963;51.504;5.316;2023-12-20T10:07:05;6.80;99.90
32522;DHT22;18963;51.504;5.316;2023-12-20T10:09:31;6.90;99.90
32522;DHT22;18963;51.504;5.316;2023-12-20T10:11:57;6.90;99.90
32522;DHT22;18963;51.504;5.316;2023-12-20T10:14:23;6.90;99.90
32522;DHT22;18963;51.504;5.316;2023-12-20T10:16:49;7.00;99.90
32522;DHT22;18963;51.504;5.316;2023-12-20T10:19:19;7.00;99.90
32522;DHT22;18963;51.504;5.316;2023-12-20T10:21:44;7.00;99.90
32522;DHT22;18963;51.504;5.316;2023-12-20T10:24:11;7.00;99.90
32522;DHT22;18963;51.504;5.316;2023-12-20T10:26:42;7.00;99.90
32522;DHT22;18963;51.504;5.316;2023-12-20T10:29:07;7.10;99.90
32522;DHT22;18963;51.504;5.316;2023-12-20T10:31:33;7.10;99.90
32522;DHT22;18963;51.504;5.316;2023-12-20T10:33:59;7.10;99.90
32522;DHT22;18963;51.504;5.316;2023-12-20T10:36:25;7.10;99.90
32522;DHT22;18963;51.504;5.316;2023-12-20T10:38:54;7.10;99.90
32522;DHT22;18963;51.504;5.316;2023-12-20T10:41:25;7.10;99.90
32522;DHT22;18963;51.504;5.316;2023-12-20T10:44:00;7.20;99.90
32522;DHT22;18963;51.504;5.316;2023-12-20T10:46:27;7.20;99.90
32522;DHT22;18963;51.504;5.316;2023-12-20T10:48:54;7.20;99.90
32522;DHT22;18963;51.504;5.316;2023-12-20T10:51:19;7.20;99.90
32522;DHT22;18963;51.504;5.316;2023-12-20T10:53:46;7.20;99.90
32522;DHT22;18963;51.504;5.316;2023-12-20T10:56:12;7.20;99.90
32522;DHT22;18963;51.504;5.316;2023-12-20T10:58:41;7.30;99.90
32522;DHT22;18963;51.504;5.316;2023-12-20T11:01:07;7.30;99.90
32522;DHT22;18963;51.504;5.316;2023-12-20T11:03:35;7.30;99.90
32522;DHT22;18963;51.504;5.316;2023-12-20T11:06:07;7.20;99.90
32522;DHT22;18963;51.504;5.316;2023-12-20T11:13:54;7.30;99.90
32522;DHT22;18963;51.504;5.316;2023-12-20T11:16:20;7.30;99.90
32522;DHT22;18963;51.504;5.316;2023-12-20T11:18:46;7.30;99.90
32522;DHT22;18963;51.504;5.316;2023-12-20T11:21:11;7.20;99.90
32522;DHT22;18963;51.504;5.316;2023-12-20T11:23:39;7.20;99.90
32522;DHT22;18963;51.504;5.316;2023-12-20T11:26:07;7.20;99.90
32522;DHT22;18963;51.504;5.316;2023-12-20T11:28:32;7.20;99.90
32522;DHT22;18963;51.504;5.316;2023-12-20T11:30:58;7.20;99.90
32522;DHT22;18963;51.504;5.316;2023-12-20T11:33:26;7.20;99.90
32522;DHT22;18963;51.504;5.316;2023-12-20T11:35:51;7.20;99.90
32522;DHT22;18963;51.504;5.316;2023-12-20T11:38:19;7.20;99.90
32522;DHT22;18963;51.504;5.316;2023-12-20T11:40:45;7.20;99.90
32522;DHT22;18963;51.504;5.316;2023-12-20T11:43:13;7.20;99.90
32522;DHT22;18963;51.504;5.316;2023-12-20T11:45:54;7.20;99.90
32522;DHT22;18963;51.504;5.316;2023-12-20T11:48:19;7.20;99.90
32522;DHT22;18963;51.504;5.316;2023-12-20T11:50:45;7.20;99.90
32522;DHT22;18963;51.504;5.316;2023-12-20T11:53:11;7.20;99.90
32522;DHT22;18963;51.504;5.316;2023-12-20T11:55:36;7.20;99.90
32522;DHT22;18963;51.504;5.316;2023-12-20T11:58:02;7.20;99.90
32522;DHT22;18963;51.504;5.316;2023-12-20T12:00:28;7.20;99.90
32522;DHT22;18963;51.504;5.316;2023-12-20T12:02:54;7.20;99.90
32522;DHT22;18963;51.504;5.316;2023-12-20T12:05:20;7.30;99.90
32522;DHT22;18963;51.504;5.316;2023-12-20T12:07:45;7.30;99.90
32522;DHT22;18963;51.504;5.316;2023-12-20T12:10:11;7.30;99.90
32522;DHT22;18963;51.504;5.316;2023-12-20T12:12:36;7.30;99.90
32522;DHT22;18963;51.504;5.316;2023-12-20T12:15:02;7.30;99.90
32522;DHT22;18963;51.504;5.316;2023-12-20T12:17:28;7.30;99.90
32522;DHT22;18963;51.504;5.316;2023-12-20T12:20:01;7.30;99.90
32522;DHT22;18963;51.504;5.316;2023-12-20T12:22:27;7.30;99.90
32522;DHT22;18963;51.504;5.316;2023-12-20T12:24:53;7.40;99.90
32522;DHT22;18963;51.504;5.316;2023-12-20T12:27:19;7.40;99.90
32522;DHT22;18963;51.504;5.316;2023-12-20T12:30:00;7.40;99.90
32522;DHT22;18963;51.504;5.316;2023-12-20T12:32:27;7.40;99.90
32522;DHT22;18963;51.504;5.316;2023-12-20T12:34:52;7.50;99.90
32522;DHT22;18963;51.504;5.316;2023-12-20T12:37:18;7.60;99.90
32522;DHT22;18963;51.504;5.316;2023-12-20T12:39:43;7.60;99.90
32522;DHT22;18963;51.504;5.316;2023-12-20T12:42:09;7.70;99.90
32522;DHT22;18963;51.504;5.316;2023-12-20T12:44:34;7.70;99.90
32522;DHT22;18963;51.504;5.316;2023-12-20T12:47:00;7.70;99.90
32522;DHT22;18963;51.504;5.316;2023-12-20T12:49:27;7.80;99.90
32522;DHT22;18963;51.504;5.316;2023-12-20T12:51:53;7.80;99.90
32522;DHT22;18963;51.504;5.316;2023-12-20T12:54:21;7.80;99.90
32522;DHT22;18963;51.504;5.316;2023-12-20T12:56:46;7.80;99.90
32522;DHT22;18963;51.504;5.316;2023-12-20T12:59:13;7.80;99.90
32522;DHT22;18963;51.504;5.316;2023-12-20T13:01:38;7.80;99.90
32522;DHT22;18963;51.504;5.316;2023-12-20T13:04:04;7.80;99.90
32522;DHT22;18963;51.504;5.316;2023-12-20T13:06:32;7.80;99.90
32522;DHT22;18963;51.504;5.316;2023-12-20T13:08:57;7.80;99.90
32522;DHT22;18963;51.504;5.316;2023-12-20T13:11:23;7.80;99.90
32522;DHT22;18963;51.504;5.316;2023-12-20T13:13:48;7.80;99.90
32522;DHT22;18963;51.504;5.316;2023-12-20T13:16:14;7.80;99.90
32522;DHT22;18963;51.504;5.316;2023-12-20T13:18:39;7.80;99.90
32522;DHT22;18963;51.504;5.316;2023-12-20T13:21:08;7.70;99.90
32522;DHT22;18963;51.504;5.316;2023-12-20T13:23:34;7.70;99.90
32522;DHT22;18963;51.504;5.316;2023-12-20T13:25:59;7.70;99.90
32522;DHT22;18963;51.504;5.316;2023-12-20T13:28:25;7.70;99.90
32522;DHT22;18963;51.504;5.316;2023-12-20T13:30:50;7.70;99.90
32522;DHT22;18963;51.504;5.316;2023-12-20T13:33:16;7.70;99.90
32522;DHT22;18963;51.504;5.316;2023-12-20T13:35:41;7.70;99.90
32522;DHT22;18963;51.504;5.316;2023-12-20T13:38:07;7.70;99.90
32522;DHT22;18963;51.504;5.316;2023-12-20T13:40:33;7.60;99.90
32522;DHT22;18963;51.504;5.316;2023-12-20T13:42:58;7.60;99.90
32522;DHT22;18963;51.504;5.316;2023-12-20T13:45:24;7.60;99.90
32522;DHT22;18963;51.504;5.316;2023-12-20T13:47:50;7.60;99.90
32522;DHT22;18963;51.504;5.316;2023-12-20T13:50:16;7.60;99.90
32522;DHT22;18963;51.504;5.316;2023-12-20T13:52:41;7.60;99.90
32522;DHT22;18963;51.504;5.316;2023-12-20T13:55:07;7.60;99.90
32522;DHT22;18963;51.504;5.316;2023-12-20T13:57:33;7.60;99.90
32522;DHT22;18963;51.504;5.316;2023-12-20T13:59:59;7.60;99.90
32522;DHT22;18963;51.504;5.316;2023-12-20T14:02:25;7.60;99.90
32522;DHT22;18963;51.504;5.316;2023-12-20T14:04:52;7.60;99.90
32522;DHT22;18963;51.504;5.316;2023-12-20T14:07:17;7.60;99.90
32522;DHT22;18963;51.504;5.316;2023-12-20T14:09:43;7.60;99.90
32522;DHT22;18963;51.504;5.316;2023-12-20T14:12:11;7.60;99.90
32522;DHT22;18963;51.504;5.316;2023-12-20T14:14:36;7.60;99.90
32522;DHT22;18963;51.504;5.316;2023-12-20T14:17:02;7.60;99.90
32522;DHT22;18963;51.504;5.316;2023-12-20T14:19:27;7.60;99.90
32522;DHT22;18963;51.504;5.316;2023-12-20T14:21:53;7.60;99.90
32522;DHT22;18963;51.504;5.316;2023-12-20T14:24:18;7.60;99.90
32522;DHT22;18963;51.504;5.316;2023-12-20T14:26:44;7.60;99.90
32522;DHT22;18963;51.504;5.316;2023-12-20T14:29:09;7.60;99.90
32522;DHT22;18963;51.504;5.316;2023-12-20T14:31:35;7.60;99.90
32522;DHT22;18963;51.504;5.316;2023-12-20T14:34:00;7.60;99.90
32522;DHT22;18963;51.504;5.316;2023-12-20T14:36:29;7.60;99.90
32522;DHT22;18963;51.504;5.316;2023-12-20T14:38:56;7.60;99.90
32522;DHT22;18963;51.504;5.316;2023-12-20T14:41:21;7.60;99.90
32522;DHT22;18963;51.504;5.316;2023-12-20T14:43:50;7.60;99.90
32522;DHT22;18963;51.504;5.316;2023-12-20T14:46:16;7.60;99.90
32522;DHT22;18963;51.504;5.316;2023-12-20T14:48:42;7.60;99.90
32522;DHT22;18963;51.504;5.316;2023-12-20T14:51:08;7.60;99.90
32522;DHT22;18963;51.504;5.316;2023-12-20T14:53:33;7.60;99.90
32522;DHT22;18963;51.504;5.316;2023-12-20T14:56:01;7.60;99.90
32522;DHT22;18963;51.504;5.316;2023-12-20T14:58:27;7.60;99.90
32522;DHT22;18963;51.504;5.316;2023-12-20T15:00:54;7.60;99.90
32522;DHT22;18963;51.504;5.316;2023-12-20T15:03:21;7.60;99.90
32522;DHT22;18963;51.504;5.316;2023-12-20T15:05:47;7.60;99.90
32522;DHT22;18963;51.504;5.316;2023-12-20T15:08:13;7.60;99.90
32522;DHT22;18963;51.504;5.316;2023-12-20T15:10:39;7.60;99.90
32522;DHT22;18963;51.504;5.316;2023-12-20T15:13:04;7.70;99.90
32522;DHT22;18963;51.504;5.316;2023-12-20T15:15:31;7.70;99.90
32522;DHT22;18963;51.504;5.316;2023-12-20T15:18:01;7.70;99.90
32522;DHT22;18963;51.504;5.316;2023-12-20T15:20:30;7.70;99.90
32522;DHT22;18963;51.504;5.316;2023-12-20T15:22:58;7.70;99.90
32522;DHT22;18963;51.504;5.316;2023-12-20T15:25:30;7.80;99.90
32522;DHT22;18963;51.504;5.316;2023-12-20T15:27:55;7.70;99.90
32522;DHT22;18963;51.504;5.316;2023-12-20T15:30:21;7.70;99.90
32522;DHT22;18963;51.504;5.316;2023-12-20T15:32:47;7.70;99.90
32522;DHT22;18963;51.504;5.316;2023-12-20T15:35:12;7.70;99.90
32522;DHT22;18963;51.504;5.316;2023-12-20T15:37:38;7.70;99.90
32522;DHT22;18963;51.504;5.316;2023-12-20T15:40:06;7.80;99.90
32522;DHT22;18963;51.504;5.316;2023-12-20T15:42:32;7.80;99.90